Time;durP1;ratioP1;P1;durP2;ratioP2;P2;SDS_P1;SDS_P2;PMS_P1;PMS_P2;Temp;Humidity;BMP_temperature;BMP_pressure;BME280_temperature;BME280_humidity;BME280_pressure;Samples;Min_cycle;Max_cycle;Signal;HPM_P1;HPM_P2
2023/09/21 00:00:44;;;;;;;0.00;0.00;;;;;;;19.27;100.00;99675.22;5103627;28;20044;-42
2023/09/21 00:03:11;;;;;;;0.00;0.00;;;;;;;19.37;100.00;99668.13;5114812;28;20035;-43
2023/09/21 00:05:39;;;;;;;0.00;0.00;;;;;;;19.37;100.00;99663.50;5102868;28;20024;-43
2023/09/21 00:08:06;;;;;;;;;;;;;;;19.43;100.00;99659.69;5101809;28;20043;-44
2023/09/21 00:10:32;;;;;;;0.00;0.00;;;;;;;19.40;100.00;99662.94;5101234;27;19908;-43
2023/09/21 00:12:59;;;;;;;0.00;0.00;;;;;;;19.44;100.00;99663.25;5094418;28;20024;-41
2023/09/21 00:15:34;;;;;;;0.00;0.00;;;;;;;19.49;100.00;99660.53;5094624;28;20064;-45
2023/09/21 00:18:00;;;;;;;0.00;0.00;;;;;;;19.54;100.00;99660.53;5094245;28;20036;-40
2023/09/21 00:20:28;;;;;;;0.00;0.00;;;;;;;19.60;100.00;99650.44;5094140;28;20036;-42
2023/09/21 00:22:54;;;;;;;0.00;0.00;;;;;;;19.62;100.00;99665.47;5092825;28;20107;-43
2023/09/21 00:25:21;;;;;;;0.00;0.00;;;;;;;19.62;100.00;99649.09;5094420;28;20108;-40
2023/09/21 00:27:47;;;;;;;;;;;;;;;19.62;100.00;99649.09;5094632;28;20401;-44
2023/09/21 00:30:12;;;;;;;0.00;0.00;;;;;;;19.59;100.00;99656.97;5111190;28;19914;-41
2023/09/21 00:32:38;;;;;;;0.00;0.00;;;;;;;19.60;100.00;99656.72;5107790;27;20076;-42
2023/09/21 00:35:08;;;;;;;0.00;0.00;;;;;;;19.60;100.00;99647.72;5093985;28;20028;-43
2023/09/21 00:37:34;;;;;;;0.00;0.00;;;;;;;19.67;100.00;99653.78;5093975;28;20031;-44
2023/09/21 00:40:00;;;;;;;0.00;0.00;;;;;;;19.68;100.00;99639.84;5103885;28;20023;-44
2023/09/21 00:42:25;;;;;;;0.00;0.00;;;;;;;19.70;100.00;99653.22;5105633;28;20027;-43
2023/09/21 00:44:51;;;;;;;0.00;0.00;;;;;;;19.66;100.00;99650.19;5112263;28;20020;-43
2023/09/21 00:47:17;;;;;;;0.00;0.00;;;;;;;19.66;100.00;99643.91;5112863;28;20441;-44
2023/09/21 00:49:42;;;;;;;0.00;0.00;;;;;;;19.67;100.00;99642.84;5104210;28;20482;-41
2023/09/21 00:52:11;;;;;;;0.00;0.00;;;;;;;19.75;100.00;99631.41;5104324;28;20035;-41
2023/09/21 00:54:41;;;;;;;0.00;0.00;;;;;;;19.76;100.00;99638.47;5112910;28;20034;-43
2023/09/21 00:57:08;;;;;;;0.00;0.00;;;;;;;19.72;100.00;99634.66;5103686;28;20133;-44
2023/09/21 00:59:36;;;;;;;;;;;;;;;19.70;100.00;99639.56;5113015;28;20394;-44
2023/09/21 01:02:04;;;;;;;0.00;0.00;;;;;;;19.66;100.00;99633.81;5111726;28;19961;-42
2023/09/21 01:04:30;;;;;;;0.00;0.00;;;;;;;19.74;100.00;99624.28;5099900;28;20117;-42
2023/09/21 01:06:56;;;;;;;0.00;0.00;;;;;;;19.75;100.00;99620.47;5097505;28;20411;-46
2023/09/21 01:09:22;;;;;;;0.00;0.00;;;;;;;19.78;100.00;99630.84;5110376;28;20098;-43
2023/09/21 01:11:48;;;;;;;0.00;0.00;;;;;;;19.80;100.00;99636.00;5112507;28;20027;-46
2023/09/21 01:14:14;;;;;;;0.00;0.00;;;;;;;19.81;100.00;99621.28;5095512;28;20040;-44
2023/09/21 01:16:40;;;;;;;0.00;0.00;;;;;;;19.80;100.00;99627.81;5112186;28;20097;-44
2023/09/21 01:19:05;;;;;;;0.00;0.00;;;;;;;19.75;100.00;99625.94;5112041;28;20103;-43
2023/09/21 01:21:35;;;;;;;0.00;0.00;;;;;;;19.73;100.00;99619.91;5103060;27;20103;-42
2023/09/21 01:24:01;;;;;;;0.00;0.00;;;;;;;19.69;100.00;99616.09;5111666;28;20069;-43
2023/09/21 01:26:26;;;;;;;0.00;0.00;;;;;;;19.61;100.00;99641.97;5109645;28;20031;-45
2023/09/21 01:28:52;;;;;;;0.00;0.00;;;;;;;19.62;100.00;99615.53;5092208;28;20462;-41
2023/09/21 01:31:18;;;;;;;0.00;0.00;;;;;;;19.59;100.00;99627.81;5098762;28;20027;-42
2023/09/21 01:33:44;;;;;;;0.00;0.00;;;;;;;19.52;100.00;99617.13;5096562;28;20040;-40
2023/09/21 01:36:12;;;;;;;0.00;0.00;;;;;;;19.50;100.00;99618.50;5094171;28;20024;-40
2023/09/21 01:38:38;;;;;;;0.00;0.00;;;;;;;19.46;100.00;99628.34;5097652;28;20030;-42
2023/09/21 01:41:06;;;;;;;0.00;0.00;;;;;;;19.46;100.00;99631.88;5092439;28;20039;-41
2023/09/21 01:43:32;;;;;;;;;;;;;;;19.35;100.00;99624.72;5094012;28;20102;-43
2023/09/21 01:45:58;;;;;;;0.00;0.00;;;;;;;19.25;100.00;99650.09;5100104;28;19943;-44
2023/09/21 01:48:23;;;;;;;0.00;0.00;;;;;;;19.15;100.00;99669.16;5107235;28;20023;-42
2023/09/21 01:50:50;;;;;;;0.00;0.00;;;;;;;19.02;100.00;99648.66;5092928;28;20023;-41
2023/09/21 01:53:17;;;;;;;0.00;0.00;;;;;;;18.84;100.00;99666.28;5097753;28;20031;-42
2023/09/21 01:55:44;;;;;;;0.00;0.00;;;;;;;18.74;100.00;99693.47;5105074;28;20035;-42
2023/09/21 01:58:10;;;;;;;0.00;0.00;;;;;;;18.71;100.00;99671.38;5092254;28;20032;-42
2023/09/21 02:00:39;;;;;;;0.00;0.00;;;;;;;18.55;100.00;99686.81;5093743;28;21500;-40
2023/09/21 02:03:06;;;;;;;0.00;0.00;;;;;;;18.33;100.00;99704.09;5101522;28;20024;-43
2023/09/21 02:05:33;;;;;;;0.00;0.00;;;;;;;18.14;100.00;99706.41;5099736;28;20097;-42
2023/09/21 02:07:58;;;;;;;0.00;0.00;;;;;;;18.01;100.00;99698.69;5108460;28;20540;-42
2023/09/21 02:10:24;;;;;;;0.00;0.00;;;;;;;17.93;100.00;99720.91;5111424;28;20111;-44
2023/09/21 02:12:57;;;;;;;0.00;0.00;;;;;;;17.85;100.00;99714.06;5098788;28;20034;-43
2023/09/21 02:15:24;;;;;;;0.00;0.00;;;;;;;17.81;100.00;99717.53;5112294;28;20110;-42
2023/09/21 02:17:51;;;;;;;0.00;0.00;;;;;;;17.66;100.00;99710.81;5101635;28;20055;-47
2023/09/21 02:20:17;;;;;;;0.00;0.00;;;;;;;17.59;100.00;99721.09;5092139;28;20024;-45
2023/09/21 02:22:47;;;;;;;0.00;0.00;;;;;;;17.56;100.00;99721.59;5112641;27;20024;-46
2023/09/21 02:25:13;;;;;;;0.00;0.00;;;;;;;17.54;100.00;99726.47;5110868;28;20115;-45
2023/09/21 02:27:40;;;;;;;0.00;0.00;;;;;;;17.39;100.00;99729.03;5111929;28;20111;-44
2023/09/21 02:30:13;;;;;;;0.00;0.00;;;;;;;17.48;100.00;99722.03;5123312;27;20023;-44
2023/09/21 02:32:46;;;;;;;0.00;0.00;;;;;;;17.46;100.00;99725.03;5121226;27;20477;-45
2023/09/21 02:35:15;;;;;;;0.00;0.00;;;;;;;17.37;100.00;99723.81;5111440;28;20063;-48
2023/09/21 02:37:47;;;;;;;0.00;0.00;;;;;;;17.33;100.00;99706.38;5111530;28;20027;-46
2023/09/21 02:40:17;;;;;;;0.00;0.00;;;;;;;17.22;100.00;99705.44;5111508;28;20152;-48
2023/09/21 02:42:49;;;;;;;0.00;0.00;;;;;;;17.23;100.00;99709.81;5104172;28;20390;-45
2023/09/21 02:45:17;;;;;;;0.00;0.00;;;;;;;17.22;100.00;99699.16;5090993;28;20032;-45
2023/09/21 02:47:43;;;;;;;0.00;0.00;;;;;;;17.21;100.00;99692.09;5091296;28;20030;-45
2023/09/21 02:50:21;;;;;;;0.00;0.00;;;;;;;17.17;100.00;99699.94;5090301;28;20047;-44
2023/09/21 02:52:47;;;;;;;0.00;0.00;;;;;;;17.23;100.00;99692.66;5091216;28;20039;-43
2023/09/21 02:55:20;;;;;;;0.00;0.00;;;;;;;17.18;100.00;99698.03;5089783;28;20436;-44
2023/09/21 02:58:09;;;;;;;0.00;0.00;;;;;;;17.17;100.00;99685.50;5091016;28;20028;-47
2023/09/21 03:00:39;;;;;;;0.00;0.00;;;;;;;17.21;100.00;99697.53;5091513;28;20142;-46
2023/09/21 03:03:06;;;;;;;0.00;0.00;;;;;;;17.23;100.00;99701.63;5091934;28;20032;-48
2023/09/21 03:05:33;;;;;;;0.00;0.00;;;;;;;17.22;100.00;99704.59;5091112;28;20112;-47
2023/09/21 03:08:09;;;;;;;0.00;0.00;;;;;;;17.17;100.00;99705.38;5091136;28;20035;-48
2023/09/21 03:10:35;;;;;;;0.00;0.00;;;;;;;17.07;100.00;99718.84;5091096;28;20032;-47
2023/09/21 03:13:02;;;;;;;0.00;0.00;;;;;;;17.07;100.00;99710.69;5099103;28;20028;-48
2023/09/21 03:15:27;;;;;;;0.00;0.00;;;;;;;17.06;100.00;99712.59;5094204;28;20026;-49
2023/09/21 03:17:53;;;;;;;0.00;0.00;;;;;;;17.01;100.00;99703.53;5107280;28;20118;-45
2023/09/21 03:20:32;;;;;;;0.00;0.00;;;;;;;16.82;100.00;99709.25;5110977;28;20028;-48
2023/09/21 03:23:05;;;;;;;0.00;0.00;;;;;;;16.91;100.00;99682.50;5094239;28;20493;-44
2023/09/21 03:25:32;;;;;;;0.00;0.00;;;;;;;16.93;100.00;99680.34;5090785;28;20666;-45
2023/09/21 03:28:00;;;;;;;0.00;0.00;;;;;;;16.94;100.00;99671.13;5089320;28;20020;-45
2023/09/21 03:30:28;;;;;;;0.00;0.00;;;;;;;16.96;100.00;99668.16;5090887;28;20529;-44
2023/09/21 03:32:54;;;;;;;0.00;0.00;;;;;;;16.98;100.00;99674.13;5104316;28;20032;-43
2023/09/21 03:35:20;;;;;;;0.00;0.00;;;;;;;17.00;100.00;99672.00;5090791;28;20035;-43
2023/09/21 03:37:48;;;;;;;0.00;0.00;;;;;;;16.97;100.00;99669.78;5090510;28;20030;-44
2023/09/21 03:40:13;;;;;;;0.00;0.00;;;;;;;16.94;100.00;99670.28;5090713;28;20077;-43
2023/09/21 03:42:39;;;;;;;0.00;0.00;;;;;;;16.91;100.00;99684.41;5090870;28;20032;-43
2023/09/21 03:45:05;;;;;;;0.00;0.00;;;;;;;16.92;100.00;99670.53;5090591;28;20099;-44
2023/09/21 03:47:33;;;;;;;0.00;0.00;;;;;;;16.93;100.00;99663.19;5090490;28;20031;-44
2023/09/21 03:50:00;;;;;;;0.00;0.00;;;;;;;16.89;100.00;99685.44;5105173;28;20028;-44
2023/09/21 03:52:25;;;;;;;0.00;0.00;;;;;;;16.89;100.00;99657.47;5090292;28;20426;-43
2023/09/21 03:54:52;;;;;;;0.00;0.00;;;;;;;16.90;100.00;99667.25;5090228;28;20087;-43
2023/09/21 03:57:17;;;;;;;0.00;0.00;;;;;;;16.89;100.00;99673.75;5072150;28;20024;-46
2023/09/21 03:59:46;;;;;;;0.00;0.00;;;;;;;16.89;100.00;99662.91;5090217;28;20148;-47
2023/09/21 04:02:13;;;;;;;0.00;0.00;;;;;;;16.88;100.00;99659.34;5097395;28;20393;-45
2023/09/21 04:04:38;;;;;;;0.00;0.00;;;;;;;16.88;100.00;99661.25;5110635;28;20023;-49
2023/09/21 04:07:04;;;;;;;0.00;0.00;;;;;;;16.84;100.00;99660.91;5108968;28;20034;-47
2023/09/21 04:09:29;;;;;;;0.00;0.00;;;;;;;16.80;100.00;99664.41;5090393;28;20062;-46
2023/09/21 04:11:57;;;;;;;0.00;0.00;;;;;;;16.82;100.00;99656.81;5090500;28;20112;-44
2023/09/21 04:14:24;;;;;;;0.00;0.00;;;;;;;16.82;100.00;99657.63;5090693;28;20032;-46
2023/09/21 04:16:50;;;;;;;0.00;0.00;;;;;;;16.79;100.00;99658.13;5089296;28;20035;-47
2023/09/21 04:19:15;;;;;;;0.00;0.00;;;;;;;16.78;100.00;99651.06;5095624;28;20084;-47
2023/09/21 04:21:40;;;;;;;0.00;0.00;;;;;;;16.74;100.00;99654.50;5110429;28;20036;-46
2023/09/21 04:24:06;;;;;;;0.00;0.00;;;;;;;16.78;100.00;99650.25;5108226;28;20031;-43
2023/09/21 04:26:32;;;;;;;0.00;0.00;;;;;;;16.75;100.00;99656.97;5090205;28;20111;-45
2023/09/21 04:28:57;;;;;;;0.00;0.00;;;;;;;16.77;100.00;99660.31;5090558;28;20035;-42
2023/09/21 04:31:22;;;;;;;0.00;0.00;;;;;;;16.69;100.00;99657.97;5089334;28;20035;-42
2023/09/21 04:33:48;;;;;;;0.00;0.00;;;;;;;16.67;100.00;99660.13;5090930;28;20038;-41
2023/09/21 04:36:14;;;;;;;0.00;0.00;;;;;;;16.64;100.00;99671.47;5090641;28;20016;-43
2023/09/21 04:38:39;;;;;;;0.00;0.00;;;;;;;16.51;100.00;99660.97;5097435;28;20027;-40
2023/09/21 04:41:04;;;;;;;0.00;0.00;;;;;;;16.56;100.00;99664.59;5111333;28;20363;-40
2023/09/21 04:43:32;;;;;;;0.00;0.00;;;;;;;16.52;100.00;99673.50;5092505;28;20035;-43
2023/09/21 04:45:58;;;;;;;0.00;0.00;;;;;;;16.55;100.00;99673.00;5094187;28;20024;-42
2023/09/21 04:48:23;;;;;;;0.00;0.00;;;;;;;16.52;100.00;99682.47;5092516;28;20036;-42
2023/09/21 04:50:49;;;;;;;0.00;0.00;;;;;;;16.52;100.00;99706.09;5105079;28;20035;-43
2023/09/21 04:53:17;;;;;;;0.00;0.00;;;;;;;16.55;100.00;99711.03;5114871;27;20023;-39
2023/09/21 04:55:44;;;;;;;0.00;0.00;;;;;;;16.35;100.00;99711.50;5096430;28;20035;-37
2023/09/21 04:58:09;;;;;;;0.00;0.00;;;;;;;16.16;100.00;99724.53;5093856;28;20040;-37
2023/09/21 05:00:35;;;;;;;0.00;0.00;;;;;;;15.89;100.00;99730.59;5106397;28;20079;-37
2023/09/21 05:03:00;;;;;;;0.10;0.10;;;;;;;15.77;100.00;99732.53;5102577;28;20023;-36
2023/09/21 05:05:26;;;;;;;0.00;0.00;;;;;;;15.66;100.00;99736.09;5098141;28;20040;-37
2023/09/21 05:07:55;;;;;;;0.00;0.00;;;;;;;15.54;100.00;99730.72;5091643;28;20020;-40
2023/09/21 05:10:20;;;;;;;0.00;0.00;;;;;;;15.34;100.00;99729.22;5093241;28;20031;-43
2023/09/21 05:12:47;;;;;;;0.00;0.00;;;;;;;15.12;100.00;99729.06;5101814;28;20525;-46
2023/09/21 05:15:14;;;;;;;0.00;0.00;;;;;;;14.83;100.00;99706.50;5093328;28;20032;-44
2023/09/21 05:17:40;;;;;;;0.00;0.00;;;;;;;14.69;100.00;99705.94;5092390;28;20032;-47
2023/09/21 05:20:09;;;;;;;0.00;0.00;;;;;;;14.50;100.00;99694.34;5093555;28;20035;-47
2023/09/21 05:22:35;;;;;;;0.00;0.00;;;;;;;14.46;100.00;99695.91;5108181;28;20035;-48
2023/09/21 05:25:04;;;;;;;0.00;0.00;;;;;;;14.57;100.00;99705.09;5093425;28;20028;-47
2023/09/21 05:27:30;;;;;;;0.00;0.00;;;;;;;14.55;100.00;99714.53;5092631;28;20020;-47
2023/09/21 05:29:57;;;;;;;0.00;0.00;;;;;;;14.59;100.00;99727.38;5103895;28;20028;-47
2023/09/21 05:32:23;;;;;;;0.00;0.00;;;;;;;14.58;100.00;99731.13;5095706;28;20032;-46
2023/09/21 05:34:49;;;;;;;0.00;0.00;;;;;;;14.59;100.00;99740.91;5097757;28;20051;-46
2023/09/21 05:37:14;;;;;;;0.00;0.00;;;;;;;14.65;100.00;99723.72;5100937;27;20398;-48
2023/09/21 05:39:40;;;;;;;0.00;0.00;;;;;;;14.59;100.00;99721.13;5091779;28;20020;-46
2023/09/21 05:42:05;;;;;;;0.00;0.00;;;;;;;14.62;100.00;99717.94;5095446;28;20074;-46
2023/09/21 05:44:31;;;;;;;0.00;0.00;;;;;;;14.63;100.00;99723.13;5099904;28;20394;-47
2023/09/21 05:46:56;;;;;;;0.00;0.00;;;;;;;14.67;100.00;99732.44;5090148;28;20490;-47
2023/09/21 05:49:24;;;;;;;0.00;0.00;;;;;;;14.83;100.00;99733.59;5096705;28;20382;-44
2023/09/21 05:51:53;;;;;;;0.00;0.00;;;;;;;14.88;100.00;99736.41;5108573;27;20074;-46
2023/09/21 05:54:23;;;;;;;0.00;0.00;;;;;;;14.87;100.00;99729.34;5095116;28;20389;-42
2023/09/21 05:56:50;;;;;;;0.00;0.00;;;;;;;14.90;100.00;99734.31;5100085;28;20028;-45
2023/09/21 05:59:17;;;;;;;0.00;0.00;;;;;;;14.89;100.00;99748.06;5097993;28;20028;-44
2023/09/21 06:01:43;;;;;;;0.00;0.00;;;;;;;14.90;100.00;99741.59;5096212;28;20282;-45
2023/09/21 06:04:12;;;;;;;0.00;0.00;;;;;;;14.95;100.00;99727.31;5108216;28;20115;-45
2023/09/21 06:06:38;;;;;;;0.00;0.00;;;;;;;14.95;100.00;99730.84;5096662;28;20110;-45
2023/09/21 06:09:03;;;;;;;0.00;0.00;;;;;;;15.02;100.00;99742.41;5101477;28;20118;-46
2023/09/21 06:11:29;;;;;;;0.00;0.00;;;;;;;15.08;100.00;99725.19;5092264;28;20100;-45
2023/09/21 06:13:54;;;;;;;0.00;0.00;;;;;;;15.12;100.00;99731.78;5091815;28;20025;-47
2023/09/21 06:16:21;;;;;;;0.00;0.00;;;;;;;15.13;100.00;99730.72;5091678;28;20380;-46
2023/09/21 06:18:48;;;;;;;0.00;0.00;;;;;;;15.17;100.00;99735.69;5092331;27;20052;-45
2023/09/21 06:21:14;;;;;;;0.00;0.00;;;;;;;15.17;100.00;99741.09;5091846;28;20028;-43
2023/09/21 06:23:40;;;;;;;0.00;0.00;;;;;;;15.19;100.00;99730.81;5111202;28;20035;-48
2023/09/21 06:26:05;;;;;;;0.00;0.00;;;;;;;15.16;100.00;99715.84;5113609;28;20119;-45
2023/09/21 06:28:31;;;;;;;0.00;0.00;;;;;;;15.15;100.00;99725.88;5112937;28;20015;-48
2023/09/21 06:30:57;;;;;;;0.00;0.00;;;;;;;15.19;100.00;99730.81;5107957;28;20024;-46
2023/09/21 06:33:24;;;;;;;0.00;0.00;;;;;;;15.11;100.00;99735.56;5091564;28;20040;-42
2023/09/21 06:35:49;;;;;;;0.00;0.00;;;;;;;15.12;100.00;99736.38;5091003;28;20024;-43
2023/09/21 06:38:15;;;;;;;0.00;0.00;;;;;;;15.09;100.00;99743.09;5091531;28;20367;-46
2023/09/21 06:40:40;;;;;;;0.00;0.00;;;;;;;15.06;100.00;99753.56;5091295;28;20035;-47
2023/09/21 06:43:08;;;;;;;0.00;0.00;;;;;;;15.13;100.00;99767.84;5091299;28;20016;-48
2023/09/21 06:45:34;;;;;;;;;;;;;;;15.14;100.00;99773.03;5092455;28;20030;-48
2023/09/21 06:48:01;;;;;;;0.00;0.00;;;;;;;15.18;100.00;99767.94;5092359;28;19908;-44
2023/09/21 06:50:27;;;;;;;0.00;0.00;;;;;;;15.25;100.00;99774.06;5093229;28;20048;-44
2023/09/21 06:52:52;;;;;;;0.00;0.00;;;;;;;15.24;100.00;99790.56;5092810;28;20114;-45
2023/09/21 06:55:18;;;;;;;0.00;0.00;;;;;;;15.25;100.00;99779.47;5092231;28;20055;-43
2023/09/21 06:57:43;;;;;;;0.00;0.00;;;;;;;15.34;100.00;99766.38;5091753;28;20478;-46
2023/09/21 07:00:09;;;;;;;0.00;0.00;;;;;;;15.44;100.00;99769.28;5091123;28;20040;-45
2023/09/21 07:02:35;;;;;;;0.00;0.00;;;;;;;15.37;100.00;99764.00;5108421;28;20066;-47
2023/09/21 07:05:00;;;;;;;0.00;0.00;;;;;;;15.34;100.00;99760.94;5111684;28;20130;-44
2023/09/21 07:07:26;;;;;;;0.00;0.00;;;;;;;15.27;100.00;99757.53;5092086;28;20157;-44
2023/09/21 07:09:53;;;;;;;0.00;0.00;;;;;;;15.31;100.00;99756.00;5091353;28;20365;-47
2023/09/21 07:12:18;;;;;;;0.00;0.00;;;;;;;15.23;100.00;99764.53;5090084;28;20449;-48
2023/09/21 07:14:45;;;;;;;0.00;0.00;;;;;;;15.14;100.00;99756.75;5090642;28;20051;-46
2023/09/21 07:17:11;;;;;;;0.00;0.00;;;;;;;15.09;100.00;99764.78;5090940;28;20398;-44
2023/09/21 07:19:37;;;;;;;0.00;0.00;;;;;;;14.96;100.00;99773.16;5090327;28;20020;-43
2023/09/21 07:22:03;;;;;;;0.00;0.00;;;;;;;14.85;100.00;99773.97;5091743;28;20052;-45
2023/09/21 07:24:29;;;;;;;0.00;0.00;;;;;;;14.76;100.00;99778.09;5091312;28;20032;-46
2023/09/21 07:26:56;;;;;;;0.00;0.00;;;;;;;14.75;100.00;99779.19;5091881;28;20028;-45
2023/09/21 07:29:22;;;;;;;0.00;0.00;;;;;;;14.85;100.00;99782.09;5089637;28;20039;-44
2023/09/21 07:31:47;;;;;;;0.00;0.00;;;;;;;14.97;100.00;99774.81;5103461;28;20654;-45
2023/09/21 07:34:13;;;;;;;0.00;0.00;;;;;;;15.09;100.00;99772.09;5110860;28;20031;-43
2023/09/21 07:36:38;;;;;;;0.00;0.00;;;;;;;15.14;100.00;99775.72;5110775;28;20028;-43
2023/09/21 07:39:08;;;;;;;0.00;0.00;;;;;;;15.20;100.00;99776.66;5110260;28;20062;-43
2023/09/21 07:41:34;;;;;;;0.00;0.00;;;;;;;15.25;100.00;99767.81;5111030;28;20032;-46
2023/09/21 07:44:00;;;;;;;0.00;0.00;;;;;;;15.37;100.00;99774.03;5110668;28;20028;-47
2023/09/21 07:46:25;;;;;;;0.00;0.00;;;;;;;15.46;100.00;99764.47;5110757;28;20476;-44
2023/09/21 07:48:50;;;;;;;0.00;0.00;;;;;;;15.59;100.00;99763.38;5110925;28;20016;-44
2023/09/21 07:51:16;;;;;;;0.00;0.00;;;;;;;15.56;100.00;99780.94;5110515;28;20217;-44
2023/09/21 07:53:42;;;;;;;0.00;0.00;;;;;;;15.56;100.00;99780.94;5110902;28;20106;-41
2023/09/21 07:56:12;;;;;;;0.00;0.00;;;;;;;15.56;100.00;99789.09;5110122;28;20080;-46
2023/09/21 07:58:37;;;;;;;0.00;0.00;;;;;;;15.58;100.00;99789.63;5110350;28;20050;-44
2023/09/21 08:01:03;;;;;;;0.00;0.00;;;;;;;15.56;100.00;99799.06;5107798;28;20047;-45
2023/09/21 08:03:28;;;;;;;0.00;0.00;;;;;;;15.57;100.00;99804.28;5100494;28;20020;-42
2023/09/21 08:05:53;;;;;;;0.00;0.00;;;;;;;15.54;100.00;99799.34;5089930;28;20161;-45
2023/09/21 08:08:19;;;;;;;0.00;0.00;;;;;;;15.51;100.00;99802.53;5088901;28;20032;-47
2023/09/21 08:10:45;;;;;;;0.00;0.00;;;;;;;15.45;100.00;99806.19;5089958;28;20024;-47
2023/09/21 08:13:10;;;;;;;0.00;0.00;;;;;;;15.38;100.00;99805.50;5090102;28;20024;-43
2023/09/21 08:15:36;;;;;;;0.00;0.00;;;;;;;15.50;100.00;99800.88;5092590;28;20032;-46
2023/09/21 08:18:02;;;;;;;0.00;0.00;;;;;;;15.65;100.00;99799.53;5094143;28;20031;-46
2023/09/21 08:20:28;;;;;;;0.00;0.00;;;;;;;15.72;100.00;99805.69;5094051;28;20221;-45
2023/09/21 08:22:53;;;;;;;0.00;0.00;;;;;;;15.63;100.00;99802.47;5093881;28;20036;-51
2023/09/21 08:25:19;;;;;;;0.00;0.00;;;;;;;15.64;100.00;99795.16;5093907;28;20035;-49
2023/09/21 08:27:45;;;;;;;0.00;0.00;;;;;;;15.64;100.00;99797.88;5094149;28;20020;-50
2023/09/21 08:30:12;;;;;;;0.00;0.00;;;;;;;15.70;100.00;99791.53;5093674;28;20032;-49
2023/09/21 08:32:39;;;;;;;0.00;0.00;;;;;;;15.70;100.00;99797.78;5093079;28;20055;-49
2023/09/21 08:35:05;;;;;;;0.00;0.00;;;;;;;15.67;100.00;99798.25;5093496;28;20479;-48
2023/09/21 08:37:31;;;;;;;0.00;0.00;;;;;;;15.69;100.00;99790.72;5093612;28;20106;-50
2023/09/21 08:39:57;;;;;;;0.00;0.00;;;;;;;15.69;100.00;99785.31;5093518;28;20030;-49
2023/09/21 08:42:22;;;;;;;0.00;0.00;;;;;;;15.85;100.00;99780.13;5093335;28;20398;-50
2023/09/21 08:44:49;;;;;;;0.00;0.00;;;;;;;15.91;100.00;99787.34;5093523;28;20242;-47
2023/09/21 08:47:14;;;;;;;0.00;0.00;;;;;;;15.87;100.00;99792.41;5111581;28;20055;-46
2023/09/21 08:49:45;;;;;;;0.00;0.00;;;;;;;15.78;100.00;99791.16;5113487;28;20119;-47
2023/09/21 08:52:11;;;;;;;0.00;0.00;;;;;;;15.87;100.00;99781.53;5113565;28;20339;-48
2023/09/21 08:54:40;;;;;;;0.00;0.00;;;;;;;15.91;100.00;99780.00;5112462;28;20081;-45
2023/09/21 08:57:13;;;;;;;0.00;0.00;;;;;;;15.93;100.00;99782.47;5113499;28;20080;-43
2023/09/21 08:59:42;;;;;;;0.00;0.00;;;;;;;15.93;100.00;99791.44;5113182;28;20040;-46
2023/09/21 09:02:12;;;;;;;0.00;0.00;;;;;;;15.86;100.00;99796.19;5100754;28;20111;-46
2023/09/21 09:04:39;;;;;;;0.00;0.00;;;;;;;15.77;100.00;99808.47;5094322;28;20093;-45
2023/09/21 09:07:05;;;;;;;0.00;0.00;;;;;;;15.51;100.00;99799.81;5092957;28;20020;-48
2023/09/21 09:09:30;;;;;;;0.00;0.00;;;;;;;15.52;100.00;99806.06;5093098;28;20023;-48
2023/09/21 09:11:56;;;;;;;0.00;0.00;;;;;;;15.50;100.00;99819.84;5092873;28;20050;-48
2023/09/21 09:14:22;;;;;;;0.00;0.00;;;;;;;15.53;100.00;99824.81;5092805;28;20386;-48
2023/09/21 09:16:47;;;;;;;0.00;0.00;;;;;;;15.58;100.00;99833.03;5092261;28;20056;-47
2023/09/21 09:19:13;;;;;;;0.00;0.00;;;;;;;15.50;100.00;99838.00;5093091;28;20436;-45
2023/09/21 09:21:41;;;;;;;0.00;0.00;;;;;;;15.46;100.00;99853.13;5093395;28;20091;-47
2023/09/21 09:24:08;;;;;;;0.00;0.00;;;;;;;15.49;100.00;99849.94;5092728;28;20065;-47
2023/09/21 09:26:36;;;;;;;0.00;0.00;;;;;;;15.54;100.00;99850.88;5092349;28;20319;-46
2023/09/21 09:29:13;;;;;;;0.00;0.00;;;;;;;15.63;100.00;99843.16;5094174;28;20031;-45
2023/09/21 09:31:41;;;;;;;0.00;0.00;;;;;;;15.61;100.00;99853.44;5108535;28;20110;-45
2023/09/21 09:34:09;;;;;;;0.00;0.00;;;;;;;15.61;100.00;99868.88;5113894;27;20513;-45
2023/09/21 09:36:36;;;;;;;0.00;0.00;;;;;;;15.63;100.00;99872.19;5113712;28;20111;-44
2023/09/21 09:39:01;;;;;;;0.00;0.00;;;;;;;15.59;100.00;99882.69;5112993;28;20034;-45
2023/09/21 09:41:28;;;;;;;0.00;0.00;;;;;;;15.67;100.00;99889.66;5113130;28;20135;-47
2023/09/21 09:43:57;;;;;;;0.00;0.00;;;;;;;15.54;100.00;99890.72;5112604;28;20024;-44
2023/09/21 09:46:23;;;;;;;0.00;0.00;;;;;;;15.67;100.00;99890.47;5113166;28;20080;-47
2023/09/21 09:48:50;;;;;;;0.00;0.00;;;;;;;15.79;100.00;99871.47;5112958;28;20030;-44
2023/09/21 09:51:21;;;;;;;0.00;0.00;;;;;;;15.61;100.00;99858.03;5111628;28;20039;-45
2023/09/21 09:53:48;;;;;;;0.00;0.00;;;;;;;15.74;100.00;99852.38;5111541;28;20458;-47
2023/09/21 09:56:14;;;;;;;0.00;0.00;;;;;;;15.72;100.00;99852.63;5111477;28;20473;-48
2023/09/21 09:58:41;;;;;;;0.00;0.00;;;;;;;15.73;100.00;99853.44;5111765;28;20110;-43
2023/09/21 10:01:09;;;;;;;0.00;0.00;;;;;;;15.73;100.00;99850.72;5112205;28;20051;-44
2023/09/21 10:03:35;;;;;;;0.00;0.00;;;;;;;15.64;100.00;99857.53;5112882;28;20515;-44
2023/09/21 10:06:00;;;;;;;0.00;0.00;;;;;;;15.62;100.00;99848.84;5111944;28;20024;-43
2023/09/21 10:08:26;;;;;;;0.00;0.00;;;;;;;15.65;100.00;99856.50;5111723;28;20031;-43
2023/09/21 10:10:56;;;;;;;0.00;0.00;;;;;;;15.70;100.00;99862.06;5112866;28;20072;-45
2023/09/21 10:13:26;;;;;;;0.00;0.00;;;;;;;15.73;100.00;99861.59;5113388;28;20083;-45
2023/09/21 10:16:01;;;;;;;0.00;0.00;;;;;;;15.69;100.00;99863.97;5113996;28;20031;-45
2023/09/21 10:18:45;;;;;;;0.00;0.00;;;;;;;15.75;100.00;99865.72;5113494;28;20038;-47
2023/09/21 10:21:22;;;;;;;0.00;0.00;;;;;;;15.72;100.00;99859.94;5112656;28;20156;-46
2023/09/21 10:23:59;;;;;;;0.00;0.00;;;;;;;15.65;100.00;99837.53;5112346;28;20088;-46
2023/09/21 10:26:25;;;;;;;0.00;0.00;;;;;;;15.72;100.00;99832.81;5113294;28;20058;-47
2023/09/21 10:28:53;;;;;;;0.00;0.00;;;;;;;15.66;100.00;99820.97;5103338;28;20047;-46
2023/09/21 10:31:23;;;;;;;0.00;0.00;;;;;;;15.69;100.00;99827.84;5092922;28;20422;-45
2023/09/21 10:33:51;;;;;;;0.00;0.00;;;;;;;15.54;100.00;99815.59;5091094;28;20454;-46
2023/09/21 10:36:23;;;;;;;0.00;0.00;;;;;;;15.47;100.00;99814.09;5092024;28;20024;-47
2023/09/21 10:39:10;;;;;;;0.00;0.00;;;;;;;15.36;100.00;99800.31;5089968;28;20032;-45
2023/09/21 10:41:43;;;;;;;0.00;0.00;;;;;;;15.32;100.00;99787.47;5091842;28;20036;-46
2023/09/21 10:44:09;;;;;;;0.00;0.00;;;;;;;15.37;100.00;99782.16;5091916;28;20042;-44
2023/09/21 10:46:35;;;;;;;0.00;0.00;;;;;;;15.34;100.00;99783.47;5091726;28;20655;-46
2023/09/21 10:49:03;;;;;;;0.00;0.00;;;;;;;15.24;100.00;99787.84;5091010;28;20016;-44
2023/09/21 10:51:29;;;;;;;0.00;0.00;;;;;;;15.10;100.00;99782.69;5090228;28;20088;-46
2023/09/21 10:53:58;;;;;;;0.00;0.00;;;;;;;14.95;100.00;99779.63;5090842;28;20028;-44
2023/09/21 10:56:24;;;;;;;0.00;0.00;;;;;;;15.04;100.00;99783.63;5090986;28;20035;-46
2023/09/21 10:58:50;;;;;;;0.00;0.00;;;;;;;14.98;100.00;99783.75;5091059;28;20030;-45
2023/09/21 11:01:15;;;;;;;0.00;0.00;;;;;;;14.81;100.00;99770.91;5093132;28;20509;-47
2023/09/21 11:03:42;;;;;;;0.00;0.00;;;;;;;15.03;100.00;99760.28;5110749;28;20084;-46
2023/09/21 11:06:07;;;;;;;0.00;0.00;;;;;;;15.12;100.00;99764.31;5110987;28;20507;-48
2023/09/21 11:08:33;;;;;;;0.00;0.00;;;;;;;15.04;100.00;99764.66;5109975;28;20035;-48
2023/09/21 11:10:59;;;;;;;0.00;0.00;;;;;;;15.03;100.00;99767.59;5111157;28;20043;-49
2023/09/21 11:13:26;;;;;;;0.00;0.00;;;;;;;15.23;100.00;99764.53;5110913;28;20030;-46
2023/09/21 11:15:54;;;;;;;0.00;0.00;;;;;;;15.38;100.00;99762.13;5110895;28;20020;-49
2023/09/21 11:18:20;;;;;;;0.00;0.00;;;;;;;15.50;100.00;99760.19;5111071;28;20111;-43
2023/09/21 11:20:46;;;;;;;0.00;0.00;;;;;;;15.53;100.00;99759.72;5110869;28;20461;-44
2023/09/21 11:23:12;;;;;;;0.00;0.00;;;;;;;15.32;100.00;99757.66;5111093;28;20026;-46
2023/09/21 11:25:37;;;;;;;0.00;0.00;;;;;;;15.21;100.00;99762.03;5110860;28;20028;-46